sensor_id;sensor_type;location;lat;lon;timestamp;P1;durP1;ratioP1;P2;durP2;ratioP2
36833;SDS011;48003;52.084;5.224;2023-04-26T00:00:44;10.3;;;5.2;;
36833;SDS011;48003;52.084;5.224;2023-04-26T00:02:20;12.5;;;5.3;;
36833;SDS011;48003;52.084;5.224;2023-04-26T00:03:56;12.2;;;5.0;;
36833;SDS011;48003;52.084;5.224;2023-04-26T00:07:08;11.5;;;5.4;;
36833;SDS011;48003;52.084;5.224;2023-04-26T00:08:44;9.4;;;5.0;;
36833;SDS011;48003;52.084;5.224;2023-04-26T00:10:21;12.3;;;5.11;;
36833;SDS011;48003;52.084;5.224;2023-04-26T00:11:57;9.9;;;5.0;;
36833;SDS011;48003;52.084;5.224;2023-04-26T00:15:10;11.3;;;5.11;;
36833;SDS011;48003;52.084;5.224;2023-04-26T00:16:46;12.9;;;5.4;;
36833;SDS011;48003;52.084;5.224;2023-04-26T00:18:22;11.6;;;4.91;;
36833;SDS011;48003;52.084;5.224;2023-04-26T00:21:35;13.5;;;5.11;;
36833;SDS011;48003;52.084;5.224;2023-04-26T00:23:11;13.1;;;4.8;;
36833;SDS011;48003;52.084;5.224;2023-04-26T00:24:48;10.0;;;5.2;;
36833;SDS011;48003;52.084;5.224;2023-04-26T00:28:00;10.4;;;5.0;;
36833;SDS011;48003;52.084;5.224;2023-04-26T00:29:36;10.9;;;5.6;;
36833;SDS011;48003;52.084;5.224;2023-04-26T00:31:13;10.4;;;5.11;;
36833;SDS011;48003;52.084;5.224;2023-04-26T00:34:30;10.3;;;5.11;;
36833;SDS011;48003;52.084;5.224;2023-04-26T00:36:07;11.9;;;5.4;;
36833;SDS011;48003;52.084;5.224;2023-04-26T00:37:43;10.3;;;5.7;;
36833;SDS011;48003;52.084;5.224;2023-04-26T00:39:19;16.11;;;5.8;;
36833;SDS011;48003;52.084;5.224;2023-04-26T00:42:31;10.1;;;5.11;;
36833;SDS011;48003;52.084;5.224;2023-04-26T00:44:07;10.9;;;5.2;;
36833;SDS011;48003;52.084;5.224;2023-04-26T00:45:44;11.5;;;5.2;;
36833;SDS011;48003;52.084;5.224;2023-04-26T00:48:56;10.9;;;5.4;;
36833;SDS011;48003;52.084;5.224;2023-04-26T00:50:32;12.4;;;5.7;;
36833;SDS011;48003;52.084;5.224;2023-04-26T00:52:08;10.8;;;5.9;;
36833;SDS011;48003;52.084;5.224;2023-04-26T00:55:22;11.4;;;5.11;;
36833;SDS011;48003;52.084;5.224;2023-04-26T00:57:00;11.2;;;5.2;;
36833;SDS011;48003;52.084;5.224;2023-04-26T00:58:37;10.0;;;5.0;;
36833;SDS011;48003;52.084;5.224;2023-04-26T01:00:13;12.2;;;5.4;;
36833;SDS011;48003;52.084;5.224;2023-04-26T01:03:26;11.3;;;5.0;;
36833;SDS011;48003;52.084;5.224;2023-04-26T01:05:02;9.21;;;5.3;;
36833;SDS011;48003;52.084;5.224;2023-04-26T01:06:39;13.5;;;5.9;;
36833;SDS011;48003;52.084;5.224;2023-04-26T01:09:53;11.5;;;5.6;;
36833;SDS011;48003;52.084;5.224;2023-04-26T01:11:31;9.71;;;5.3;;
36833;SDS011;48003;52.084;5.224;2023-04-26T01:13:08;10.5;;;5.2;;
36833;SDS011;48003;52.084;5.224;2023-04-26T01:14:45;13.0;;;5.9;;
36833;SDS011;48003;52.084;5.224;2023-04-26T01:17:58;10.9;;;5.5;;
36833;SDS011;48003;52.084;5.224;2023-04-26T01:19:34;10.21;;;5.3;;
36833;SDS011;48003;52.084;5.224;2023-04-26T01:21:10;11.7;;;6.3;;
36833;SDS011;48003;52.084;5.224;2023-04-26T01:24:23;10.8;;;6.0;;
36833;SDS011;48003;52.084;5.224;2023-04-26T01:25:59;10.8;;;5.4;;
36833;SDS011;48003;52.084;5.224;2023-04-26T01:27:35;10.1;;;5.9;;
36833;SDS011;48003;52.084;5.224;2023-04-26T01:30:50;11.9;;;6.0;;
36833;SDS011;48003;52.084;5.224;2023-04-26T01:32:26;14.3;;;5.5;;
36833;SDS011;48003;52.084;5.224;2023-04-26T01:34:02;11.1;;;5.9;;
36833;SDS011;48003;52.084;5.224;2023-04-26T01:35:38;12.9;;;6.0;;
36833;SDS011;48003;52.084;5.224;2023-04-26T01:38:51;12.0;;;6.3;;
36833;SDS011;48003;52.084;5.224;2023-04-26T01:40:27;10.7;;;5.5;;
36833;SDS011;48003;52.084;5.224;2023-04-26T01:42:03;11.2;;;6.0;;
36833;SDS011;48003;52.084;5.224;2023-04-26T01:45:16;9.81;;;5.8;;
36833;SDS011;48003;52.084;5.224;2023-04-26T01:46:52;10.7;;;6.0;;
36833;SDS011;48003;52.084;5.224;2023-04-26T01:48:28;17.11;;;6.5;;
36833;SDS011;48003;52.084;5.224;2023-04-26T01:51:42;9.6;;;6.3;;
36833;SDS011;48003;52.084;5.224;2023-04-26T01:53:18;14.3;;;6.2;;
36833;SDS011;48003;52.084;5.224;2023-04-26T01:54:55;12.9;;;6.1;;
36833;SDS011;48003;52.084;5.224;2023-04-26T01:58:07;12.0;;;6.5;;
36833;SDS011;48003;52.084;5.224;2023-04-26T01:59:43;13.3;;;6.5;;
36833;SDS011;48003;52.084;5.224;2023-04-26T02:01:19;12.5;;;6.4;;
36833;SDS011;48003;52.084;5.224;2023-04-26T02:02:56;11.1;;;6.0;;
36833;SDS011;48003;52.084;5.224;2023-04-26T02:06:10;11.5;;;6.3;;
36833;SDS011;48003;52.084;5.224;2023-04-26T02:07:46;14.2;;;7.2;;
36833;SDS011;48003;52.084;5.224;2023-04-26T02:09:22;13.4;;;7.5;;
36833;SDS011;48003;52.084;5.224;2023-04-26T02:12:34;13.3;;;7.8;;
36833;SDS011;48003;52.084;5.224;2023-04-26T02:14:10;14.2;;;8.4;;
36833;SDS011;48003;52.084;5.224;2023-04-26T02:15:47;15.5;;;8.6;;
36833;SDS011;48003;52.084;5.224;2023-04-26T02:19:02;14.3;;;7.8;;
36833;SDS011;48003;52.084;5.224;2023-04-26T02:20:39;17.3;;;8.4;;
36833;SDS011;48003;52.084;5.224;2023-04-26T02:22:15;15.4;;;7.6;;
36833;SDS011;48003;52.084;5.224;2023-04-26T02:23:51;14.0;;;8.1;;
36833;SDS011;48003;52.084;5.224;2023-04-26T02:27:03;14.4;;;8.5;;
36833;SDS011;48003;52.084;5.224;2023-04-26T02:28:39;13.0;;;8.4;;
36833;SDS011;48003;52.084;5.224;2023-04-26T02:30:17;14.1;;;8.5;;
36833;SDS011;48003;52.084;5.224;2023-04-26T02:33:29;15.5;;;8.71;;
36833;SDS011;48003;52.084;5.224;2023-04-26T02:35:05;17.2;;;8.71;;
36833;SDS011;48003;52.084;5.224;2023-04-26T02:36:42;15.6;;;8.6;;
36833;SDS011;48003;52.084;5.224;2023-04-26T02:39:54;17.11;;;8.9;;
36833;SDS011;48003;52.084;5.224;2023-04-26T02:41:31;14.1;;;8.9;;
36833;SDS011;48003;52.084;5.224;2023-04-26T02:43:08;14.6;;;8.81;;
36833;SDS011;48003;52.084;5.224;2023-04-26T02:44:44;14.2;;;8.71;;
36833;SDS011;48003;52.084;5.224;2023-04-26T02:47:59;15.8;;;9.4;;
36833;SDS011;48003;52.084;5.224;2023-04-26T02:49:35;17.2;;;9.71;;
36833;SDS011;48003;52.084;5.224;2023-04-26T02:51:11;14.3;;;9.1;;
36833;SDS011;48003;52.084;5.224;2023-04-26T02:54:23;16.11;;;8.5;;
36833;SDS011;48003;52.084;5.224;2023-04-26T02:56:00;14.8;;;8.9;;
36833;SDS011;48003;52.084;5.224;2023-04-26T02:57:36;15.4;;;9.4;;
36833;SDS011;48003;52.084;5.224;2023-04-26T03:00:48;13.5;;;9.1;;
36833;SDS011;48003;52.084;5.224;2023-04-26T03:02:24;18.5;;;8.81;;
36833;SDS011;48003;52.084;5.224;2023-04-26T03:04:00;15.8;;;9.1;;
36833;SDS011;48003;52.084;5.224;2023-04-26T03:05:36;15.2;;;8.6;;
36833;SDS011;48003;52.084;5.224;2023-04-26T03:08:50;16.2;;;8.81;;
36833;SDS011;48003;52.084;5.224;2023-04-26T03:10:26;15.0;;;8.6;;
36833;SDS011;48003;52.084;5.224;2023-04-26T03:12:02;14.0;;;8.1;;
36833;SDS011;48003;52.084;5.224;2023-04-26T03:15:14;17.0;;;8.4;;
36833;SDS011;48003;52.084;5.224;2023-04-26T03:16:50;13.9;;;8.81;;
36833;SDS011;48003;52.084;5.224;2023-04-26T03:18:26;15.6;;;8.81;;
36833;SDS011;48003;52.084;5.224;2023-04-26T03:21:39;15.9;;;8.9;;
36833;SDS011;48003;52.084;5.224;2023-04-26T03:23:16;14.2;;;8.6;;
36833;SDS011;48003;52.084;5.224;2023-04-26T03:24:52;17.8;;;9.0;;
36833;SDS011;48003;52.084;5.224;2023-04-26T03:28:04;15.2;;;8.4;;
36833;SDS011;48003;52.084;5.224;2023-04-26T03:29:40;15.5;;;8.2;;
36833;SDS011;48003;52.084;5.224;2023-04-26T03:31:16;13.0;;;8.71;;
36833;SDS011;48003;52.084;5.224;2023-04-26T03:32:53;15.4;;;8.6;;
36833;SDS011;48003;52.084;5.224;2023-04-26T03:36:06;15.9;;;8.9;;
36833;SDS011;48003;52.084;5.224;2023-04-26T03:37:42;14.2;;;8.0;;
36833;SDS011;48003;52.084;5.224;2023-04-26T03:39:19;12.5;;;8.5;;
36833;SDS011;48003;52.084;5.224;2023-04-26T03:42:31;12.2;;;8.2;;
36833;SDS011;48003;52.084;5.224;2023-04-26T03:44:07;14.4;;;8.5;;
36833;SDS011;48003;52.084;5.224;2023-04-26T03:45:45;14.2;;;8.1;;
36833;SDS011;48003;52.084;5.224;2023-04-26T03:48:58;14.9;;;8.4;;
36833;SDS011;48003;52.084;5.224;2023-04-26T03:50:34;14.1;;;8.2;;
36833;SDS011;48003;52.084;5.224;2023-04-26T03:52:10;13.5;;;8.71;;
36833;SDS011;48003;52.084;5.224;2023-04-26T03:53:46;11.8;;;7.9;;
36833;SDS011;48003;52.084;5.224;2023-04-26T03:56:58;15.4;;;8.9;;
36833;SDS011;48003;52.084;5.224;2023-04-26T03:58:34;14.5;;;8.6;;
36833;SDS011;48003;52.084;5.224;2023-04-26T04:00:11;13.3;;;8.4;;
36833;SDS011;48003;52.084;5.224;2023-04-26T04:03:24;14.2;;;8.6;;
36833;SDS011;48003;52.084;5.224;2023-04-26T04:05:00;16.8;;;8.5;;
36833;SDS011;48003;52.084;5.224;2023-04-26T04:06:36;13.1;;;8.9;;
36833;SDS011;48003;52.084;5.224;2023-04-26T04:09:49;14.8;;;8.5;;
36833;SDS011;48003;52.084;5.224;2023-04-26T04:11:24;15.4;;;8.81;;
36833;SDS011;48003;52.084;5.224;2023-04-26T04:13:00;14.9;;;9.1;;
36833;SDS011;48003;52.084;5.224;2023-04-26T04:14:36;15.1;;;9.1;;
36833;SDS011;48003;52.084;5.224;2023-04-26T04:17:49;13.6;;;8.6;;
36833;SDS011;48003;52.084;5.224;2023-04-26T04:19:26;14.2;;;8.9;;
36833;SDS011;48003;52.084;5.224;2023-04-26T04:21:02;14.8;;;9.1;;
36833;SDS011;48003;52.084;5.224;2023-04-26T04:24:14;16.2;;;9.1;;
36833;SDS011;48003;52.084;5.224;2023-04-26T04:25:50;14.1;;;8.4;;
36833;SDS011;48003;52.084;5.224;2023-04-26T04:27:26;14.3;;;8.4;;
36833;SDS011;48003;52.084;5.224;2023-04-26T04:30:39;14.3;;;8.71;;
36833;SDS011;48003;52.084;5.224;2023-04-26T04:32:16;14.2;;;8.81;;
36833;SDS011;48003;52.084;5.224;2023-04-26T04:33:52;14.5;;;8.71;;
36833;SDS011;48003;52.084;5.224;2023-04-26T04:37:06;14.0;;;8.9;;
36833;SDS011;48003;52.084;5.224;2023-04-26T04:38:42;19.3;;;8.71;;
36833;SDS011;48003;52.084;5.224;2023-04-26T04:40:18;17.11;;;9.1;;
36833;SDS011;48003;52.084;5.224;2023-04-26T04:41:54;15.4;;;9.1;;
36833;SDS011;48003;52.084;5.224;2023-04-26T04:45:07;16.2;;;8.5;;
36833;SDS011;48003;52.084;5.224;2023-04-26T04:46:44;15.6;;;9.1;;
36833;SDS011;48003;52.084;5.224;2023-04-26T04:48:20;15.1;;;8.31;;
36833;SDS011;48003;52.084;5.224;2023-04-26T04:51:32;16.3;;;8.71;;
36833;SDS011;48003;52.084;5.224;2023-04-26T04:53:08;14.4;;;9.21;;
36833;SDS011;48003;52.084;5.224;2023-04-26T04:54:44;15.6;;;9.1;;
36833;SDS011;48003;52.084;5.224;2023-04-26T04:57:57;16.8;;;9.21;;
36833;SDS011;48003;52.084;5.224;2023-04-26T04:59:33;13.0;;;8.4;;
36833;SDS011;48003;52.084;5.224;2023-04-26T05:02:45;18.5;;;8.81;;
36833;SDS011;48003;52.084;5.224;2023-04-26T05:05:58;16.8;;;10.1;;
36833;SDS011;48003;52.084;5.224;2023-04-26T05:07:34;15.0;;;9.0;;
36833;SDS011;48003;52.084;5.224;2023-04-26T05:09:10;16.2;;;8.9;;
36833;SDS011;48003;52.084;5.224;2023-04-26T05:12:23;13.5;;;8.81;;
36833;SDS011;48003;52.084;5.224;2023-04-26T05:13:59;14.1;;;9.0;;
36833;SDS011;48003;52.084;5.224;2023-04-26T05:15:35;17.8;;;9.6;;
36833;SDS011;48003;52.084;5.224;2023-04-26T05:18:47;14.7;;;10.0;;
36833;SDS011;48003;52.084;5.224;2023-04-26T05:20:23;15.3;;;10.0;;
36833;SDS011;48003;52.084;5.224;2023-04-26T05:22:00;14.6;;;9.0;;
36833;SDS011;48003;52.084;5.224;2023-04-26T05:25:14;15.5;;;9.4;;
36833;SDS011;48003;52.084;5.224;2023-04-26T05:26:50;14.5;;;8.71;;
36833;SDS011;48003;52.084;5.224;2023-04-26T05:28:26;14.5;;;9.21;;
36833;SDS011;48003;52.084;5.224;2023-04-26T05:30:02;19.0;;;9.21;;
36833;SDS011;48003;52.084;5.224;2023-04-26T05:33:15;15.7;;;9.1;;
36833;SDS011;48003;52.084;5.224;2023-04-26T05:34:51;16.4;;;8.4;;
36833;SDS011;48003;52.084;5.224;2023-04-26T05:36:28;16.0;;;8.71;;
36833;SDS011;48003;52.084;5.224;2023-04-26T05:39:40;17.3;;;9.21;;
36833;SDS011;48003;52.084;5.224;2023-04-26T05:41:16;15.4;;;9.0;;
36833;SDS011;48003;52.084;5.224;2023-04-26T05:42:52;13.7;;;8.5;;
36833;SDS011;48003;52.084;5.224;2023-04-26T05:46:04;15.8;;;9.1;;
36833;SDS011;48003;52.084;5.224;2023-04-26T05:47:40;16.7;;;8.5;;
36833;SDS011;48003;52.084;5.224;2023-04-26T05:49:17;15.6;;;7.8;;
36833;SDS011;48003;52.084;5.224;2023-04-26T05:50:53;13.8;;;7.3;;
36833;SDS011;48003;52.084;5.224;2023-04-26T05:54:05;13.0;;;7.6;;
36833;SDS011;48003;52.084;5.224;2023-04-26T05:55:41;13.2;;;7.6;;
36833;SDS011;48003;52.084;5.224;2023-04-26T05:57:17;11.0;;;6.1;;
36833;SDS011;48003;52.084;5.224;2023-04-26T06:00:30;11.9;;;6.6;;
36833;SDS011;48003;52.084;5.224;2023-04-26T06:02:06;11.6;;;6.5;;
36833;SDS011;48003;52.084;5.224;2023-04-26T06:03:43;12.2;;;6.3;;
36833;SDS011;48003;52.084;5.224;2023-04-26T06:06:56;12.9;;;6.8;;
36833;SDS011;48003;52.084;5.224;2023-04-26T06:08:32;14.4;;;6.3;;
36833;SDS011;48003;52.084;5.224;2023-04-26T06:10:09;13.8;;;6.3;;
36833;SDS011;48003;52.084;5.224;2023-04-26T06:11:45;11.8;;;6.4;;
36833;SDS011;48003;52.084;5.224;2023-04-26T06:14:58;12.0;;;5.9;;
36833;SDS011;48003;52.084;5.224;2023-04-26T06:16:34;13.3;;;6.2;;
36833;SDS011;48003;52.084;5.224;2023-04-26T06:18:10;11.3;;;5.3;;
36833;SDS011;48003;52.084;5.224;2023-04-26T06:21:23;10.8;;;5.6;;
36833;SDS011;48003;52.084;5.224;2023-04-26T06:22:59;11.5;;;5.6;;
36833;SDS011;48003;52.084;5.224;2023-04-26T06:24:35;9.6;;;5.0;;
36833;SDS011;48003;52.084;5.224;2023-04-26T06:27:48;12.5;;;5.11;;
36833;SDS011;48003;52.084;5.224;2023-04-26T06:29:24;12.4;;;4.8;;
36833;SDS011;48003;52.084;5.224;2023-04-26T06:31:00;11.1;;;4.7;;
36833;SDS011;48003;52.084;5.224;2023-04-26T06:34:13;9.5;;;4.5;;
36833;SDS011;48003;52.084;5.224;2023-04-26T06:35:49;13.5;;;4.2;;
36833;SDS011;48003;52.084;5.224;2023-04-26T06:37:26;8.2;;;4.2;;
36833;SDS011;48003;52.084;5.224;2023-04-26T06:39:03;8.71;;;3.8;;
36833;SDS011;48003;52.084;5.224;2023-04-26T06:42:15;8.4;;;3.4;;
36833;SDS011;48003;52.084;5.224;2023-04-26T06:43:51;8.1;;;4.0;;
36833;SDS011;48003;52.084;5.224;2023-04-26T06:45:28;10.21;;;3.7;;
36833;SDS011;48003;52.084;5.224;2023-04-26T06:48:41;7.1;;;3.2;;
36833;SDS011;48003;52.084;5.224;2023-04-26T06:50:18;9.21;;;3.1;;
36833;SDS011;48003;52.084;5.224;2023-04-26T06:51:54;7.4;;;3.1;;
36833;SDS011;48003;52.084;5.224;2023-04-26T06:55:06;7.2;;;3.2;;
36833;SDS011;48003;52.084;5.224;2023-04-26T06:56:44;10.21;;;3.0;;
36833;SDS011;48003;52.084;5.224;2023-04-26T06:58:20;12.3;;;3.2;;
36833;SDS011;48003;52.084;5.224;2023-04-26T06:59:56;7.6;;;2.7;;
36833;SDS011;48003;52.084;5.224;2023-04-26T07:03:10;7.0;;;2.31;;
36833;SDS011;48003;52.084;5.224;2023-04-26T07:04:46;7.9;;;2.31;;
36833;SDS011;48003;52.084;5.224;2023-04-26T07:06:22;7.9;;;2.4;;
36833;SDS011;48003;52.084;5.224;2023-04-26T07:09:36;7.1;;;2.4;;
36833;SDS011;48003;52.084;5.224;2023-04-26T07:11:12;10.5;;;2.7;;
36833;SDS011;48003;52.084;5.224;2023-04-26T07:12:48;5.8;;;2.21;;
36833;SDS011;48003;52.084;5.224;2023-04-26T07:16:01;12.9;;;2.6;;
36833;SDS011;48003;52.084;5.224;2023-04-26T07:17:37;8.5;;;2.7;;
36833;SDS011;48003;52.084;5.224;2023-04-26T07:19:12;8.81;;;2.4;;
36833;SDS011;48003;52.084;5.224;2023-04-26T07:20:48;8.9;;;2.6;;
36833;SDS011;48003;52.084;5.224;2023-04-26T07:24:00;7.5;;;2.5;;
36833;SDS011;48003;52.084;5.224;2023-04-26T07:25:36;6.3;;;2.0;;
36833;SDS011;48003;52.084;5.224;2023-04-26T07:27:12;5.3;;;2.4;;
36833;SDS011;48003;52.084;5.224;2023-04-26T07:30:26;6.6;;;2.4;;
36833;SDS011;48003;52.084;5.224;2023-04-26T07:32:02;5.11;;;2.21;;
36833;SDS011;48003;52.084;5.224;2023-04-26T07:33:38;7.3;;;2.5;;
36833;SDS011;48003;52.084;5.224;2023-04-26T07:36:50;6.5;;;2.4;;
36833;SDS011;48003;52.084;5.224;2023-04-26T07:38:26;7.7;;;2.4;;
36833;SDS011;48003;52.084;5.224;2023-04-26T07:40:03;6.4;;;2.21;;
36833;SDS011;48003;52.084;5.224;2023-04-26T07:43:16;7.2;;;2.4;;
36833;SDS011;48003;52.084;5.224;2023-04-26T07:44:53;7.5;;;2.5;;
36833;SDS011;48003;52.084;5.224;2023-04-26T07:46:29;8.81;;;2.8;;
36833;SDS011;48003;52.084;5.224;2023-04-26T07:48:07;8.81;;;2.5;;
36833;SDS011;48003;52.084;5.224;2023-04-26T07:51:20;6.1;;;2.4;;
36833;SDS011;48003;52.084;5.224;2023-04-26T07:52:56;6.0;;;2.4;;
36833;SDS011;48003;52.084;5.224;2023-04-26T07:54:32;6.5;;;2.31;;
36833;SDS011;48003;52.084;5.224;2023-04-26T07:57:44;5.3;;;2.4;;
36833;SDS011;48003;52.084;5.224;2023-04-26T07:59:20;6.6;;;2.0;;
36833;SDS011;48003;52.084;5.224;2023-04-26T08:00:56;5.7;;;2.21;;
36833;SDS011;48003;52.084;5.224;2023-04-26T08:04:09;4.5;;;2.0;;
36833;SDS011;48003;52.084;5.224;2023-04-26T08:05:45;6.4;;;2.0;;
36833;SDS011;48003;52.084;5.224;2023-04-26T08:07:21;5.4;;;2.0;;
36833;SDS011;48003;52.084;5.224;2023-04-26T08:08:57;7.7;;;2.21;;
36833;SDS011;48003;52.084;5.224;2023-04-26T08:12:09;5.5;;;1.7;;
36833;SDS011;48003;52.084;5.224;2023-04-26T08:13:46;9.6;;;2.21;;
36833;SDS011;48003;52.084;5.224;2023-04-26T08:15:22;5.0;;;1.9;;
36833;SDS011;48003;52.084;5.224;2023-04-26T08:18:36;4.3;;;1.9;;
36833;SDS011;48003;52.084;5.224;2023-04-26T08:20:12;5.2;;;1.6;;
36833;SDS011;48003;52.084;5.224;2023-04-26T08:21:48;5.4;;;2.0;;
36833;SDS011;48003;52.084;5.224;2023-04-26T08:25:00;5.11;;;1.7;;
36833;SDS011;48003;52.084;5.224;2023-04-26T08:26:36;5.9;;;1.3;;
36833;SDS011;48003;52.084;5.224;2023-04-26T08:31:25;6.0;;;2.1;;
36833;SDS011;48003;52.084;5.224;2023-04-26T08:33:01;6.8;;;2.21;;
36833;SDS011;48003;52.084;5.224;2023-04-26T08:34:38;8.6;;;2.21;;
36833;SDS011;48003;52.084;5.224;2023-04-26T08:36:14;7.4;;;1.5;;
36833;SDS011;48003;52.084;5.224;2023-04-26T08:39:27;5.2;;;1.5;;
36833;SDS011;48003;52.084;5.224;2023-04-26T08:41:03;4.0;;;1.5;;
36833;SDS011;48003;52.084;5.224;2023-04-26T08:42:40;7.3;;;1.4;;
36833;SDS011;48003;52.084;5.224;2023-04-26T08:45:58;5.9;;;1.3;;
36833;SDS011;48003;52.084;5.224;2023-04-26T08:47:37;7.4;;;1.5;;
36833;SDS011;48003;52.084;5.224;2023-04-26T08:49:21;7.0;;;1.6;;
36833;SDS011;48003;52.084;5.224;2023-04-26T08:51:10;5.11;;;1.7;;
36833;SDS011;48003;52.084;5.224;2023-04-26T08:54:26;5.11;;;2.0;;
36833;SDS011;48003;52.084;5.224;2023-04-26T08:56:03;4.61;;;1.4;;
36833;SDS011;48003;52.084;5.224;2023-04-26T08:57:41;5.7;;;1.7;;
36833;SDS011;48003;52.084;5.224;2023-04-26T08:59:18;7.8;;;1.7;;
36833;SDS011;48003;52.084;5.224;2023-04-26T09:02:32;6.7;;;2.1;;
36833;SDS011;48003;52.084;5.224;2023-04-26T09:04:09;8.1;;;1.8;;
36833;SDS011;48003;52.084;5.224;2023-04-26T09:05:46;3.8;;;1.3;;
36833;SDS011;48003;52.084;5.224;2023-04-26T09:09:07;5.4;;;1.6;;
36833;SDS011;48003;52.084;5.224;2023-04-26T09:10:45;5.7;;;1.7;;
36833;SDS011;48003;52.084;5.224;2023-04-26T09:12:22;4.91;;;1.5;;
36833;SDS011;48003;52.084;5.224;2023-04-26T09:13:58;8.1;;;2.0;;
36833;SDS011;48003;52.084;5.224;2023-04-26T09:17:23;6.4;;;1.4;;
36833;SDS011;48003;52.084;5.224;2023-04-26T09:19:00;4.0;;;1.2;;
36833;SDS011;48003;52.084;5.224;2023-04-26T09:20:37;4.7;;;1.4;;
36833;SDS011;48003;52.084;5.224;2023-04-26T09:22:13;5.7;;;1.6;;
36833;SDS011;48003;52.084;5.224;2023-04-26T09:25:33;3.5;;;1.3;;
36833;SDS011;48003;52.084;5.224;2023-04-26T09:27:10;3.6;;;1.3;;
36833;SDS011;48003;52.084;5.224;2023-04-26T09:28:46;4.8;;;1.6;;
36833;SDS011;48003;52.084;5.224;2023-04-26T09:32:00;7.0;;;1.8;;
36833;SDS011;48003;52.084;5.224;2023-04-26T09:33:36;4.0;;;1.7;;
36833;SDS011;48003;52.084;5.224;2023-04-26T09:35:32;4.61;;;1.4;;
36833;SDS011;48003;52.084;5.224;2023-04-26T09:37:10;5.0;;;1.6;;
36833;SDS011;48003;52.084;5.224;2023-04-26T09:40:22;6.8;;;1.5;;
36833;SDS011;48003;52.084;5.224;2023-04-26T09:42:02;8.1;;;1.7;;
36833;SDS011;48003;52.084;5.224;2023-04-26T09:43:38;4.8;;;1.5;;
36833;SDS011;48003;52.084;5.224;2023-04-26T09:45:16;5.9;;;3.1;;
36833;SDS011;48003;52.084;5.224;2023-04-26T09:48:38;8.71;;;2.31;;
36833;SDS011;48003;52.084;5.224;2023-04-26T09:50:24;4.41;;;1.8;;
36833;SDS011;48003;52.084;5.224;2023-04-26T09:52:02;5.11;;;2.4;;
36833;SDS011;48003;52.084;5.224;2023-04-26T09:53:40;8.4;;;2.7;;
36833;SDS011;48003;52.084;5.224;2023-04-26T09:57:02;5.2;;;1.5;;
36833;SDS011;48003;52.084;5.224;2023-04-26T09:58:53;5.9;;;1.6;;
36833;SDS011;48003;52.084;5.224;2023-04-26T10:00:32;7.1;;;2.5;;
36833;SDS011;48003;52.084;5.224;2023-04-26T10:02:11;5.9;;;1.7;;
36833;SDS011;48003;52.084;5.224;2023-04-26T10:05:27;4.8;;;1.5;;
36833;SDS011;48003;52.084;5.224;2023-04-26T10:07:04;5.6;;;1.7;;
36833;SDS011;48003;52.084;5.224;2023-04-26T10:08:40;6.6;;;1.8;;
36833;SDS011;48003;52.084;5.224;2023-04-26T10:10:17;4.7;;;1.6;;
36833;SDS011;48003;52.084;5.224;2023-04-26T10:13:33;5.3;;;1.6;;
36833;SDS011;48003;52.084;5.224;2023-04-26T10:15:10;4.5;;;1.2;;
36833;SDS011;48003;52.084;5.224;2023-04-26T10:16:47;4.2;;;1.3;;
36833;SDS011;48003;52.084;5.224;2023-04-26T10:20:00;7.1;;;1.6;;
36833;SDS011;48003;52.084;5.224;2023-04-26T10:21:39;4.1;;;1.3;;
36833;SDS011;48003;52.084;5.224;2023-04-26T10:23:18;5.5;;;1.4;;
36833;SDS011;48003;52.084;5.224;2023-04-26T10:24:56;4.0;;;1.5;;
36833;SDS011;48003;52.084;5.224;2023-04-26T10:28:58;4.5;;;1.5;;
36833;SDS011;48003;52.084;5.224;2023-04-26T10:30:52;4.0;;;1.4;;
36833;SDS011;48003;52.084;5.224;2023-04-26T10:32:29;4.61;;;1.4;;
36833;SDS011;48003;52.084;5.224;2023-04-26T10:34:21;5.7;;;1.6;;
36833;SDS011;48003;52.084;5.224;2023-04-26T10:35:58;6.5;;;1.5;;
36833;SDS011;48003;52.084;5.224;2023-04-26T10:38:12;3.5;;;1.11;;
36833;SDS011;48003;52.084;5.224;2023-04-26T10:40:21;4.1;;;1.4;;
36833;SDS011;48003;52.084;5.224;2023-04-26T10:42:28;4.7;;;1.2;;
36833;SDS011;48003;52.084;5.224;2023-04-26T10:44:38;4.91;;;1.4;;
36833;SDS011;48003;52.084;5.224;2023-04-26T10:46:35;7.0;;;1.7;;
36833;SDS011;48003;52.084;5.224;2023-04-26T10:48:13;4.3;;;1.6;;
36833;SDS011;48003;52.084;5.224;2023-04-26T10:52:17;4.61;;;1.5;;
36833;SDS011;48003;52.084;5.224;2023-04-26T10:53:58;5.11;;;1.6;;
36833;SDS011;48003;52.084;5.224;2023-04-26T10:55:37;3.6;;;1.3;;
36833;SDS011;48003;52.084;5.224;2023-04-26T10:57:14;4.2;;;1.3;;
36833;SDS011;48003;52.084;5.224;2023-04-26T10:59:05;3.9;;;1.6;;
36833;SDS011;48003;52.084;5.224;2023-04-26T11:00:42;4.7;;;1.5;;
36833;SDS011;48003;52.084;5.224;2023-04-26T11:02:43;6.4;;;1.8;;
36833;SDS011;48003;52.084;5.224;2023-04-26T11:05:55;6.9;;;1.6;;
36833;SDS011;48003;52.084;5.224;2023-04-26T11:07:36;4.8;;;1.7;;
36833;SDS011;48003;52.084;5.224;2023-04-26T11:09:47;4.91;;;1.6;;
36833;SDS011;48003;52.084;5.224;2023-04-26T11:11:24;3.7;;;1.5;;
36833;SDS011;48003;52.084;5.224;2023-04-26T11:13:02;4.8;;;1.7;;
36833;SDS011;48003;52.084;5.224;2023-04-26T11:17:52;5.4;;;1.5;;
36833;SDS011;48003;52.084;5.224;2023-04-26T11:19:29;3.2;;;1.4;;
36833;SDS011;48003;52.084;5.224;2023-04-26T11:22:43;6.6;;;1.8;;
36833;SDS011;48003;52.084;5.224;2023-04-26T11:24:23;6.7;;;1.7;;
36833;SDS011;48003;52.084;5.224;2023-04-26T11:26:00;6.7;;;1.8;;
36833;SDS011;48003;52.084;5.224;2023-04-26T11:27:38;6.7;;;1.8;;
36833;SDS011;48003;52.084;5.224;2023-04-26T11:30:56;5.3;;;1.7;;
36833;SDS011;48003;52.084;5.224;2023-04-26T11:32:33;5.4;;;1.4;;
36833;SDS011;48003;52.084;5.224;2023-04-26T11:34:09;4.1;;;1.6;;
36833;SDS011;48003;52.084;5.224;2023-04-26T11:37:22;5.11;;;1.5;;
36833;SDS011;48003;52.084;5.224;2023-04-26T11:38:59;4.8;;;1.7;;
36833;SDS011;48003;52.084;5.224;2023-04-26T11:40:35;3.7;;;1.3;;
36833;SDS011;48003;52.084;5.224;2023-04-26T11:43:47;5.5;;;1.5;;
36833;SDS011;48003;52.084;5.224;2023-04-26T11:45:24;5.5;;;1.6;;
36833;SDS011;48003;52.084;5.224;2023-04-26T11:47:00;4.0;;;1.4;;
36833;SDS011;48003;52.084;5.224;2023-04-26T11:48:37;4.2;;;1.4;;
36833;SDS011;48003;52.084;5.224;2023-04-26T11:51:52;6.8;;;1.7;;
36833;SDS011;48003;52.084;5.224;2023-04-26T11:53:37;5.0;;;1.8;;
36833;SDS011;48003;52.084;5.224;2023-04-26T11:55:14;8.81;;;3.1;;
36833;SDS011;48003;52.084;5.224;2023-04-26T11:58:27;4.41;;;1.3;;
36833;SDS011;48003;52.084;5.224;2023-04-26T12:00:07;4.5;;;1.7;;
36833;SDS011;48003;52.084;5.224;2023-04-26T12:01:49;4.1;;;1.6;;
36833;SDS011;48003;52.084;5.224;2023-04-26T12:03:29;3.6;;;1.5;;
36833;SDS011;48003;52.084;5.224;2023-04-26T12:06:43;5.7;;;1.7;;
36833;SDS011;48003;52.084;5.224;2023-04-26T12:08:22;3.0;;;1.7;;
36833;SDS011;48003;52.084;5.224;2023-04-26T12:10:07;4.0;;;1.5;;
36833;SDS011;48003;52.084;5.224;2023-04-26T12:11:52;4.8;;;1.5;;
36833;SDS011;48003;52.084;5.224;2023-04-26T12:15:08;4.5;;;1.7;;
36833;SDS011;48003;52.084;5.224;2023-04-26T12:16:46;4.2;;;1.8;;
36833;SDS011;48003;52.084;5.224;2023-04-26T12:18:28;4.1;;;1.6;;
36833;SDS011;48003;52.084;5.224;2023-04-26T12:20:09;6.9;;;1.6;;
36833;SDS011;48003;52.084;5.224;2023-04-26T12:23:22;4.0;;;1.5;;
36833;SDS011;48003;52.084;5.224;2023-04-26T12:25:02;5.4;;;1.6;;
36833;SDS011;48003;52.084;5.224;2023-04-26T12:26:40;4.1;;;1.4;;
36833;SDS011;48003;52.084;5.224;2023-04-26T12:29:53;3.9;;;1.5;;
36833;SDS011;48003;52.084;5.224;2023-04-26T12:31:29;4.8;;;1.9;;
36833;SDS011;48003;52.084;5.224;2023-04-26T12:33:05;6.3;;;1.8;;
36833;SDS011;48003;52.084;5.224;2023-04-26T12:34:41;3.9;;;2.0;;
36833;SDS011;48003;52.084;5.224;2023-04-26T12:37:54;4.2;;;1.7;;
36833;SDS011;48003;52.084;5.224;2023-04-26T12:39:30;4.7;;;2.0;;
36833;SDS011;48003;52.084;5.224;2023-04-26T12:41:06;5.2;;;1.5;;
36833;SDS011;48003;52.084;5.224;2023-04-26T12:44:18;3.5;;;1.2;;
36833;SDS011;48003;52.084;5.224;2023-04-26T12:45:54;6.1;;;1.5;;
36833;SDS011;48003;52.084;5.224;2023-04-26T12:47:30;4.3;;;1.5;;
36833;SDS011;48003;52.084;5.224;2023-04-26T12:50:43;2.8;;;1.2;;
36833;SDS011;48003;52.084;5.224;2023-04-26T12:52:19;2.5;;;1.0;;
36833;SDS011;48003;52.084;5.224;2023-04-26T12:53:55;3.1;;;1.0;;
36833;SDS011;48003;52.084;5.224;2023-04-26T12:55:31;4.1;;;1.3;;